Jaragua, Brazil
Current Conditions -  °F | °C
As of 12:00 AM on Saturday 20 Dec 2014 (Local Time) from SBAN Reporting Station
Scattered Clouds Scattered Clouds  
Wind Chill: 68°   Ceiling: Unl
Heat Index: 68°   Visibility: 6mi
Dew Point: 64°   Wind: 3mph
Humidity: 88%   Direction: 20°NNE
Pressure: 30.03"   Gusts: NA
Location:  15.76°S, 49.33°W
Report Text: SBAN 200200Z 02003KT 9999 FEW035 SCT090 20/18 Q1017
Loading
Personal Weather Stations






























Interactive Weather Map New forecast layout! Learn more

10-Day Weather Forecast

Advertisements
Track Severe Weather on mobile